Time;durP1;ratioP1;P1;durP2;ratioP2;P2;SDS_P1;SDS_P2;PMS_P1;PMS_P2;Temp;Humidity;BMP_temperature;BMP_pressure;BME280_temperature;BME280_humidity;BME280_pressure;Samples;Min_cycle;Max_cycle;Signal;HPM_P1;HPM_P2
2021/03/09 00:04:48;;;;;;;;;;;4.30;99.90;;;;;;10508206;28;19924;-86
2021/03/09 00:09:49;;;;;;;;;;;4.20;99.90;;;;;;10521959;28;19928;-86
2021/03/09 00:14:50;;;;;;;;;;;6.70;99.90;;;;;;10522877;28;20018;-85
2021/03/09 00:20:05;;;;;;;;;;;4.10;99.90;;;;;;10464180;28;20375;-86
2021/03/09 00:25:07;;;;;;;;;;;4.00;99.90;;;;;;10481462;28;19971;-86
2021/03/09 00:30:09;;;;;;;;;;;4.00;99.90;;;;;;10464682;28;19924;-86
2021/03/09 00:35:10;;;;;;;;;;;3.90;99.90;;;;;;10465666;28;19936;-86
2021/03/09 00:40:12;;;;;;;;;;;3.90;99.90;;;;;;10522644;28;19924;-86
2021/03/09 00:45:13;;;;;;;;;;;3.80;99.90;;;;;;10499504;28;19931;-86
2021/03/09 00:50:27;;;;;;;;;;;3.80;99.90;;;;;;10538791;28;19931;-85
2021/03/09 00:55:29;;;;;;;;;;;4.00;99.90;;;;;;10533184;28;20337;-86
2021/03/09 01:00:31;;;;;;;;;;;6.10;99.90;;;;;;10497613;28;19924;-86
2021/03/09 01:05:32;;;;;;;;;;;5.20;99.90;;;;;;10485222;28;20019;-86
2021/03/09 01:10:34;;;;;;;;;;;3.80;99.90;;;;;;10521757;28;20383;-86
2021/03/09 01:15:35;;;;;;;;;;;4.30;99.90;;;;;;10529795;28;20015;-86
2021/03/09 01:20:51;;;;;;;;;;;4.50;99.90;;;;;;10497900;28;19925;-86
2021/03/09 01:25:53;;;;;;;;;;;4.50;99.90;;;;;;10506910;28;20309;-86
2021/03/09 01:30:54;;;;;;;;;;;4.40;99.90;;;;;;10539085;28;19924;-86
2021/03/09 01:35:55;;;;;;;;;;;3.50;99.90;;;;;;10527688;28;19928;-86
2021/03/09 01:40:56;;;;;;;;;;;4.30;99.90;;;;;;10469906;28;19924;-85
2021/03/09 01:45:58;;;;;;;;;;;3.60;99.90;;;;;;10480418;28;20010;-85
2021/03/09 01:51:14;;;;;;;;;;;3.60;99.90;;;;;;10530138;28;19970;-86
2021/03/09 01:56:16;;;;;;;;;;;4.00;99.90;;;;;;10538037;28;19924;-86
2021/03/09 02:01:17;;;;;;;;;;;3.90;99.90;;;;;;10485159;28;19924;-86
2021/03/09 02:06:18;;;;;;;;;;;5.80;99.90;;;;;;10500724;28;19924;-86
2021/03/09 02:11:27;;;;;;;;;;;3.50;99.90;;;;;;10486836;28;20019;-86
2021/03/09 02:16:32;;;;;;;;;;;6.40;99.90;;;;;;10486015;28;19925;-86
2021/03/09 02:22:02;;;;;;;;;;;4.00;99.90;;;;;;10485860;28;19924;-86
2021/03/09 02:27:09;;;;;;;;;;;3.50;99.90;;;;;;10519524;28;19924;-86
2021/03/09 02:32:13;;;;;;;;;;;3.60;99.90;;;;;;10527066;28;19935;-86
2021/03/09 02:37:16;;;;;;;;;;;5.80;99.90;;;;;;10492504;28;20371;-86
2021/03/09 02:42:28;;;;;;;;;;;3.70;99.90;;;;;;10484885;28;19924;-86
2021/03/09 02:47:30;;;;;;;;;;;3.60;99.90;;;;;;10501400;28;20375;-87
2021/03/09 02:52:33;;;;;;;;;;;4.20;99.90;;;;;;10483402;28;19964;-86
2021/03/09 02:57:35;;;;;;;;;;;3.60;99.90;;;;;;10483827;28;20354;-87
2021/03/09 03:02:38;;;;;;;;;;;3.60;99.90;;;;;;10501182;28;19925;-87
2021/03/09 03:07:40;;;;;;;;;;;5.60;99.90;;;;;;10517457;28;19935;-87
2021/03/09 03:12:42;;;;;;;;;;;4.10;99.90;;;;;;10483060;28;20286;-87
2021/03/09 03:17:43;;;;;;;;;;;3.60;99.90;;;;;;10519539;28;19930;-88
2021/03/09 03:22:46;;;;;;;;;;;3.60;99.90;;;;;;10525102;28;19935;-88
2021/03/09 03:27:48;;;;;;;;;;;5.90;99.90;;;;;;10524518;28;20015;-88
2021/03/09 03:32:49;;;;;;;;;;;2.50;99.90;;;;;;10543758;28;20359;-88
2021/03/09 03:37:51;;;;;;;;;;;3.50;99.90;;;;;;10501588;28;20042;-87
2021/03/09 03:42:52;;;;;;;;;;;6.20;99.90;;;;;;10466291;28;19928;-88
2021/03/09 03:47:56;;;;;;;;;;;4.20;99.90;;;;;;10557218;28;19938;-88
2021/03/09 03:53:01;;;;;;;;;;;5.10;99.90;;;;;;10555605;28;20303;-88
2021/03/09 03:58:12;;;;;;;;;;;5.90;99.90;;;;;;10481677;28;20027;-88
2021/03/09 04:03:14;;;;;;;;;;;3.60;99.90;;;;;;10483937;28;19963;-88
2021/03/09 04:08:16;;;;;;;;;;;1.80;99.90;;;;;;10555760;28;19924;-88
2021/03/09 04:13:17;;;;;;;;;;;6.30;99.90;;;;;;10535812;28;19927;-88
2021/03/09 04:18:19;;;;;;;;;;;4.20;99.90;;;;;;10481699;28;19924;-89
2021/03/09 04:23:21;;;;;;;;;;;6.00;99.90;;;;;;10486207;28;19928;-89
2021/03/09 04:28:22;;;;;;;;;;;5.10;99.90;;;;;;10491428;28;20015;-88
2021/03/09 04:33:26;;;;;;;;;;;6.20;99.90;;;;;;10470333;28;20391;-89
2021/03/09 04:38:28;;;;;;;;;;;6.10;99.90;;;;;;10520487;28;19924;-89
2021/03/09 04:43:29;;;;;;;;;;;3.60;99.90;;;;;;10529654;28;20459;-89
2021/03/09 04:48:30;;;;;;;;;;;3.60;99.90;;;;;;10476531;28;19928;-88
2021/03/09 04:53:33;;;;;;;;;;;4.40;99.90;;;;;;10494949;28;19925;-89
2021/03/09 04:58:34;;;;;;;;;;;5.50;99.90;;;;;;10437045;28;19972;-88
2021/03/09 05:03:36;;;;;;;;;;;4.20;99.90;;;;;;10429919;28;19978;-89
2021/03/09 05:08:37;;;;;;;;;;;6.00;99.90;;;;;;10480502;28;19925;-89
2021/03/09 05:13:39;;;;;;;;;;;4.00;99.90;;;;;;10475405;28;19928;-89
2021/03/09 05:18:40;;;;;;;;;;;3.90;99.90;;;;;;10448639;28;20019;-89
2021/03/09 05:23:53;;;;;;;;;;;5.90;99.90;;;;;;10435501;28;19924;-88
2021/03/09 05:28:59;;;;;;;;;;;3.70;99.90;;;;;;10495201;28;19924;-88
2021/03/09 05:34:00;;;;;;;;;;;3.70;99.90;;;;;;10475644;28;20355;-88
2021/03/09 05:39:01;;;;;;;;;;;5.80;99.90;;;;;;10483294;28;19925;-89
2021/03/09 05:44:03;;;;;;;;;;;3.70;99.90;;;;;;10481932;28;19972;-88
2021/03/09 05:49:04;;;;;;;;;;;3.70;99.90;;;;;;10510432;22;19960;-88
2021/03/09 05:54:22;;;;;;;;;;;3.50;99.90;;;;;;10471391;28;20023;-89
2021/03/09 05:59:24;;;;;;;;;;;4.90;99.90;;;;;;10473955;28;19925;-89
2021/03/09 06:04:26;;;;;;;;;;;4.90;99.90;;;;;;10467365;28;20278;-89
2021/03/09 06:09:33;;;;;;;;;;;6.60;99.90;;;;;;10453024;28;19929;-89
2021/03/09 06:14:39;;;;;;;;;;;3.80;99.90;;;;;;10413249;28;20387;-89
2021/03/09 06:19:44;;;;;;;;;;;3.80;99.90;;;;;;10477345;28;20015;-89
2021/03/09 06:24:47;;;;;;;;;;;3.80;99.90;;;;;;10483175;28;19924;-89
2021/03/09 06:29:48;;;;;;;;;;;4.30;99.90;;;;;;10465181;28;20394;-90
2021/03/09 06:34:50;;;;;;;;;;;5.30;99.90;;;;;;10425664;28;20023;-90
2021/03/09 06:39:58;;;;;;;;;;;6.00;99.90;;;;;;10475500;28;20035;-89
2021/03/09 06:45:01;;;;;;;;;;;3.90;99.90;;;;;;10474454;28;19947;-89
2021/03/09 06:50:07;;;;;;;;;;;6.10;99.90;;;;;;10505216;28;19943;-89
2021/03/09 06:55:12;;;;;;;;;;;3.90;99.90;;;;;;10522289;28;20333;-89
2021/03/09 07:00:13;;;;;;;;;;;3.90;99.90;;;;;;10482054;28;19933;-89
2021/03/09 07:05:15;;;;;;;;;;;4.00;99.90;;;;;;10467687;28;19928;-89
2021/03/09 07:10:17;;;;;;;;;;;4.20;99.90;;;;;;10513579;28;19925;-89
2021/03/09 07:15:26;;;;;;;;;;;4.10;99.90;;;;;;10479689;28;19928;-90
2021/03/09 07:20:27;;;;;;;;;;;4.00;99.90;;;;;;10522967;28;20401;-90
2021/03/09 07:25:30;;;;;;;;;;;6.20;99.90;;;;;;10533723;28;20019;-90
2021/03/09 07:30:39;;;;;;;;;;;4.10;99.90;;;;;;10482023;28;20004;-90
2021/03/09 07:35:42;;;;;;;;;;;5.80;99.90;;;;;;10490997;28;19934;-90
2021/03/09 07:40:43;;;;;;;;;;;4.20;99.90;;;;;;10522776;28;20362;-90
2021/03/09 07:45:44;;;;;;;;;;;4.30;99.90;;;;;;10522449;28;19931;-91
2021/03/09 07:50:46;;;;;;;;;;;5.10;99.90;;;;;;10540146;28;20468;-90
2021/03/09 07:55:47;;;;;;;;;;;4.40;99.90;;;;;;10554582;28;19912;-90
2021/03/09 08:00:54;;;;;;;;;;;5.80;99.90;;;;;;10528134;28;20255;-90
2021/03/09 08:05:58;;;;;;;;;;;4.50;99.90;;;;;;10545326;28;20362;-90
2021/03/09 08:10:59;;;;;;;;;;;4.80;99.90;;;;;;10521449;28;19912;-90
2021/03/09 08:16:18;;;;;;;;;;;4.60;99.90;;;;;;10500346;28;20378;-90
2021/03/09 08:21:39;;;;;;;;;;;4.70;99.90;;;;;;10519865;28;19931;-90
2021/03/09 08:26:42;;;;;;;;;;;4.90;99.90;;;;;;10526580;28;19928;-90
2021/03/09 08:31:43;;;;;;;;;;;5.00;99.90;;;;;;10538966;28;19931;-90
2021/03/09 08:36:45;;;;;;;;;;;5.10;99.90;;;;;;10521344;28;19970;-91
2021/03/09 08:41:46;;;;;;;;;;;5.20;99.90;;;;;;10577604;28;19934;-91
2021/03/09 08:47:00;;;;;;;;;;;6.80;99.90;;;;;;10536832;28;20304;-90
2021/03/09 08:52:06;;;;;;;;;;;5.30;99.90;;;;;;10571327;28;19924;-90
2021/03/09 08:57:07;;;;;;;;;;;5.40;99.90;;;;;;10564373;28;20011;-90
2021/03/09 09:02:19;;;;;;;;;;;5.40;99.90;;;;;;10528372;28;19930;-90
2021/03/09 09:07:23;;;;;;;;;;;5.50;99.90;;;;;;10548621;28;19950;-90
2021/03/09 09:12:25;;;;;;;;;;;5.50;99.90;;;;;;10555280;28;19923;-89
2021/03/09 09:17:27;;;;;;;;;;;5.50;99.90;;;;;;10572457;28;19930;-90
2021/03/09 09:22:29;;;;;;;;;;;5.60;99.90;;;;;;10571112;28;19930;-90
2021/03/09 09:27:48;;;;;;;;;;;5.80;99.90;;;;;;10546657;28;19924;-91
2021/03/09 09:32:57;;;;;;;;;;;6.10;99.90;;;;;;10547053;28;19924;-91
2021/03/09 09:38:09;;;;;;;;;;;6.20;99.90;;;;;;10531149;28;20031;-90
2021/03/09 09:43:14;;;;;;;;;;;6.30;99.90;;;;;;10532662;28;19966;-91
2021/03/09 09:48:20;;;;;;;;;;;6.30;99.90;;;;;;10571250;28;19924;-92
2021/03/09 09:53:29;;;;;;;;;;;6.20;99.90;;;;;;10570232;28;19932;-89
2021/03/09 09:58:47;;;;;;;;;;;6.20;99.90;;;;;;10557124;28;19924;-91
2021/03/09 10:03:58;;;;;;;;;;;6.30;99.90;;;;;;10551351;28;20030;-92
2021/03/09 10:09:17;;;;;;;;;;;6.40;99.90;;;;;;10524709;28;19924;-91
2021/03/09 10:14:19;;;;;;;;;;;6.40;99.90;;;;;;10518586;28;19935;-92
2021/03/09 10:19:22;;;;;;;;;;;6.40;99.90;;;;;;10536703;28;20400;-89
2021/03/09 10:24:26;;;;;;;;;;;6.30;99.90;;;;;;10529659;28;19928;-89
2021/03/09 10:29:29;;;;;;;;;;;6.30;99.90;;;;;;10561757;28;20349;-89
2021/03/09 10:34:34;;;;;;;;;;;6.40;99.90;;;;;;10537543;28;19932;-89
2021/03/09 10:39:38;;;;;;;;;;;6.30;99.90;;;;;;10586904;28;19927;-91
2021/03/09 10:44:39;;;;;;;;;;;6.70;99.90;;;;;;10570847;28;19928;-91
2021/03/09 10:49:41;;;;;;;;;;;6.70;99.90;;;;;;10518462;28;19939;-91
2021/03/09 10:54:42;;;;;;;;;;;6.80;99.90;;;;;;10513041;28;19949;-92
2021/03/09 10:59:58;;;;;;;;;;;7.60;99.90;;;;;;10538326;28;19970;-91
2021/03/09 11:04:59;;;;;;;;;;;7.00;99.90;;;;;;10532664;28;20359;-91
2021/03/09 11:10:01;;;;;;;;;;;7.30;99.90;;;;;;10539417;28;19935;-91
2021/03/09 11:15:03;;;;;;;;;;;7.10;99.90;;;;;;10533190;28;19928;-91
2021/03/09 11:20:05;;;;;;;;;;;7.10;99.90;;;;;;10576224;28;19928;-92
2021/03/09 11:25:07;;;;;;;;;;;6.90;99.90;;;;;;10525838;28;19984;-92
2021/03/09 11:30:08;;;;;;;;;;;6.90;99.90;;;;;;10516570;28;20397;-91
2021/03/09 11:35:10;;;;;;;;;;;6.80;99.90;;;;;;10546066;28;20293;-91
2021/03/09 11:40:11;;;;;;;;;;;6.80;99.90;;;;;;10523692;28;19969;-90
2021/03/09 11:45:13;;;;;;;;;;;6.70;99.90;;;;;;10517174;28;19928;-91
2021/03/09 11:50:15;;;;;;;;;;;6.70;99.90;;;;;;10547140;22;19946;-92
2021/03/09 11:55:16;;;;;;;;;;;6.70;99.90;;;;;;10509177;28;19931;-92
2021/03/09 12:00:21;;;;;;;;;;;6.60;99.90;;;;;;10490477;28;19931;-91
2021/03/09 12:05:23;;;;;;;;;;;6.50;99.90;;;;;;10534210;28;20047;-91
2021/03/09 12:10:24;;;;;;;;;;;8.20;99.90;;;;;;10517832;28;19994;-91
2021/03/09 12:15:26;;;;;;;;;;;6.50;99.90;;;;;;10459028;28;19983;-91
2021/03/09 12:20:27;;;;;;;;;;;9.00;99.90;;;;;;10479440;28;19928;-92
2021/03/09 12:25:28;;;;;;;;;;;6.60;99.90;;;;;;10515981;28;19932;-91
2021/03/09 12:30:30;;;;;;;;;;;6.80;99.90;;;;;;10508607;28;19924;-91
2021/03/09 12:35:31;;;;;;;;;;;6.80;99.90;;;;;;10544665;28;20010;-92
2021/03/09 12:40:32;;;;;;;;;;;8.30;99.90;;;;;;10542694;28;19924;-92
2021/03/09 12:45:33;;;;;;;;;;;7.60;99.90;;;;;;10538709;28;19979;-92
2021/03/09 12:50:35;;;;;;;;;;;6.50;99.90;;;;;;10517733;28;19928;-92
2021/03/09 12:55:37;;;;;;;;;;;6.40;99.90;;;;;;10466516;28;20304;-91
2021/03/09 13:00:38;;;;;;;;;;;8.30;99.90;;;;;;10483847;28;20022;-91
2021/03/09 13:05:40;;;;;;;;;;;8.40;99.90;;;;;;10501729;28;19928;-90
2021/03/09 13:10:41;;;;;;;;;;;8.30;99.90;;;;;;10510470;28;19940;-90
2021/03/09 13:15:42;;;;;;;;;;;7.30;99.90;;;;;;10463780;28;19972;-90
2021/03/09 13:20:44;;;;;;;;;;;9.10;99.90;;;;;;10501515;28;20420;-90
2021/03/09 13:25:45;;;;;;;;;;;7.30;99.90;;;;;;10525298;28;20393;-90
2021/03/09 13:30:46;;;;;;;;;;;9.60;99.90;;;;;;10521994;28;20003;-90
2021/03/09 13:35:47;;;;;;;;;;;8.40;99.90;;;;;;10526149;28;19924;-90
2021/03/09 13:40:49;;;;;;;;;;;7.90;99.90;;;;;;10528775;28;19991;-90
2021/03/09 13:45:50;;;;;;;;;;;9.40;99.90;;;;;;10510612;28;19931;-90
2021/03/09 13:50:52;;;;;;;;;;;7.20;99.90;;;;;;10488203;28;19940;-90
2021/03/09 13:55:53;;;;;;;;;;;8.50;99.90;;;;;;10480591;28;19931;-90
2021/03/09 14:00:54;;;;;;;;;;;6.80;99.90;;;;;;10507130;28;19974;-90
2021/03/09 14:05:56;;;;;;;;;;;8.50;99.90;;;;;;10520143;28;20461;-91
2021/03/09 14:10:57;;;;;;;;;;;7.50;99.90;;;;;;10496729;28;19924;-90
2021/03/09 14:15:59;;;;;;;;;;;6.70;99.90;;;;;;10527806;28;20018;-91
2021/03/09 14:21:00;;;;;;;;;;;5.60;99.90;;;;;;10525515;28;19924;-90
2021/03/09 14:26:02;;;;;;;;;;;4.90;99.90;;;;;;10526321;28;20359;-90
2021/03/09 14:31:04;;;;;;;;;;;6.70;99.90;;;;;;10478490;28;19970;-91
2021/03/09 14:36:06;;;;;;;;;;;8.10;99.90;;;;;;10477442;28;19931;-91
2021/03/09 14:41:07;;;;;;;;;;;6.70;99.90;;;;;;10499167;28;19947;-91
2021/03/09 14:46:09;;;;;;;;;;;6.80;99.90;;;;;;10498623;28;19931;-91
2021/03/09 14:51:10;;;;;;;;;;;7.00;99.90;;;;;;10513002;28;19932;-91
2021/03/09 14:56:12;;;;;;;;;;;6.90;99.90;;;;;;10497189;28;19974;-91
2021/03/09 15:01:13;;;;;;;;;;;7.10;99.90;;;;;;10492053;28;19984;-91
2021/03/09 15:06:15;;;;;;;;;;;6.90;99.90;;;;;;10507529;28;19924;-91
2021/03/09 15:11:16;;;;;;;;;;;8.50;99.90;;;;;;10515445;28;19967;-91
2021/03/09 15:16:17;;;;;;;;;;;7.90;99.90;;;;;;10541836;28;19934;-91
2021/03/09 15:21:19;;;;;;;;;;;7.20;99.90;;;;;;10512319;28;19928;-91
2021/03/09 15:26:21;;;;;;;;;;;9.30;99.90;;;;;;10528787;28;19935;-91
2021/03/09 15:31:22;;;;;;;;;;;6.80;99.90;;;;;;10553458;28;19925;-91
2021/03/09 15:36:23;;;;;;;;;;;8.60;99.90;;;;;;10554845;28;19924;-91
2021/03/09 15:41:25;;;;;;;;;;;7.00;99.90;;;;;;10519377;28;19924;-91
2021/03/09 15:46:26;;;;;;;;;;;7.00;99.90;;;;;;10522993;28;19924;-91
2021/03/09 17:12:27;;;;;;;;;;;6.10;99.90;;;;;;13153495;22;1462011;-89
2021/03/09 17:17:28;;;;;;;;;;;6.00;99.90;;;;;;13172908;22;19985;-89
2021/03/09 17:22:30;;;;;;;;;;;6.10;99.90;;;;;;13146399;22;19929;-89
2021/03/09 17:27:31;;;;;;;;;;;6.00;99.90;;;;;;13147152;22;20004;-88
2021/03/09 17:32:45;;;;;;;;;;;6.40;99.90;;;;;;13173510;22;19941;-89
2021/03/09 17:37:46;;;;;;;;;;;5.90;99.90;;;;;;13146396;22;20358;-88
2021/03/09 17:42:48;;;;;;;;;;;6.50;99.90;;;;;;13173397;22;19922;-89
2021/03/09 21:39:21;;;;;;;;;;;5.00;99.90;;;;;;13147679;22;19915;-92
2021/03/09 21:44:22;;;;;;;;;;;4.90;99.90;;;;;;13155100;22;19934;-88
2021/03/09 21:49:23;;;;;;;;;;;4.90;99.90;;;;;;13129080;22;19918;-88
2021/03/09 21:54:25;;;;;;;;;;;4.80;99.90;;;;;;13128473;22;19950;-88
2021/03/09 21:59:26;;;;;;;;;;;4.80;99.90;;;;;;13128743;22;19946;-88
2021/03/09 22:04:27;;;;;;;;;;;6.50;99.90;;;;;;13128569;22;19924;-89
2021/03/09 22:09:29;;;;;;;;;;;4.70;99.90;;;;;;13129298;22;19926;-88
2021/03/09 22:14:30;;;;;;;;;;;6.80;99.90;;;;;;13128473;22;20310;-88
2021/03/09 22:19:32;;;;;;;;;;;4.60;99.90;;;;;;13181596;22;20323;-89
2021/03/09 22:24:33;;;;;;;;;;;6.60;99.90;;;;;;13128210;22;20390;-88
2021/03/09 22:29:35;;;;;;;;;;;4.40;99.90;;;;;;13154664;22;19918;-88
2021/03/09 22:34:36;;;;;;;;;;;4.70;99.90;;;;;;13154777;22;19918;-88
2021/03/09 22:39:37;;;;;;;;;;;4.20;99.90;;;;;;13182172;22;20009;-88
2021/03/09 22:44:38;;;;;;;;;;;4.10;99.90;;;;;;13153538;22;20362;-88
2021/03/09 22:49:40;;;;;;;;;;;4.40;99.90;;;;;;13181188;22;20386;-88
2021/03/09 22:54:41;;;;;;;;;;;4.00;99.90;;;;;;13153435;22;20345;-88
2021/03/09 22:59:42;;;;;;;;;;;3.80;99.90;;;;;;13127974;22;19946;-89
2021/03/09 23:04:44;;;;;;;;;;;4.90;99.90;;;;;;13128074;22;19918;-88
2021/03/09 23:09:46;;;;;;;;;;;4.80;99.90;;;;;;13127007;22;19957;-88
2021/03/09 23:14:47;;;;;;;;;;;3.50;99.90;;;;;;13127077;22;19930;-88
2021/03/09 23:19:49;;;;;;;;;;;3.10;99.90;;;;;;13127095;22;20330;-89
2021/03/09 23:24:50;;;;;;;;;;;2.60;99.90;;;;;;13126838;22;19986;-88
2021/03/09 23:29:51;;;;;;;;;;;2.80;99.90;;;;;;13153812;22;19918;-88
2021/03/09 23:34:53;;;;;;;;;;;2.30;99.90;;;;;;13152562;22;20381;-88
2021/03/09 23:39:54;;;;;;;;;;;4.10;99.90;;;;;;13126465;22;19922;-88
2021/03/09 23:44:55;;;;;;;;;;;2.40;99.90;;;;;;13126919;22;19994;-88
2021/03/09 23:49:57;;;;;;;;;;;2.30;99.90;;;;;;13127106;22;20243;-88
2021/03/09 23:54:58;;;;;;;;;;;2.20;99.90;;;;;;13180318;22;19922;-88
2021/03/09 23:59:59;;;;;;;;;;;2.10;99.90;;;;;;13153208;22;19985;-88
